sensor_id;sensor_type;location;lat;lon;timestamp;temperature;humidity
45233;DHT22;30969;51.052;17.056;2023-02-15T00:00:25;6.00;65.00
45233;DHT22;30969;51.052;17.056;2023-02-15T00:05:48;5.90;65.00
45233;DHT22;30969;51.052;17.056;2023-02-15T00:10:56;5.90;65.00
45233;DHT22;30969;51.052;17.056;2023-02-15T00:16:07;5.80;65.20
45233;DHT22;30969;51.052;17.056;2023-02-15T00:21:11;5.80;65.50
45233;DHT22;30969;51.052;17.056;2023-02-15T00:26:15;5.80;65.50
45233;DHT22;30969;51.052;17.056;2023-02-15T00:31:19;5.80;65.70
45233;DHT22;30969;51.052;17.056;2023-02-15T00:36:23;5.70;65.70
45233;DHT22;30969;51.052;17.056;2023-02-15T00:41:28;5.70;65.70
45233;DHT22;30969;51.052;17.056;2023-02-15T00:46:32;5.70;65.70
45233;DHT22;30969;51.052;17.056;2023-02-15T00:51:35;5.70;65.80
45233;DHT22;30969;51.052;17.056;2023-02-15T00:56:40;5.60;65.80
45233;DHT22;30969;51.052;17.056;2023-02-15T01:01:44;5.60;66.00
45233;DHT22;30969;51.052;17.056;2023-02-15T01:06:47;5.50;66.00
45233;DHT22;30969;51.052;17.056;2023-02-15T01:11:52;5.50;66.10
45233;DHT22;30969;51.052;17.056;2023-02-15T01:16:56;5.40;66.00
45233;DHT22;30969;51.052;17.056;2023-02-15T01:21:59;5.40;66.10
45233;DHT22;30969;51.052;17.056;2023-02-15T01:27:04;5.20;66.50
45233;DHT22;30969;51.052;17.056;2023-02-15T01:32:07;5.00;66.90
45233;DHT22;30969;51.052;17.056;2023-02-15T01:37:11;5.00;67.30
45233;DHT22;30969;51.052;17.056;2023-02-15T01:42:21;5.00;67.40
45233;DHT22;30969;51.052;17.056;2023-02-15T01:47:32;4.90;67.40
45233;DHT22;30969;51.052;17.056;2023-02-15T01:52:42;4.90;68.20
45233;DHT22;30969;51.052;17.056;2023-02-15T02:03:41;4.90;67.60
45233;DHT22;30969;51.052;17.056;2023-02-15T02:08:46;4.80;67.50
45233;DHT22;30969;51.052;17.056;2023-02-15T02:13:53;4.80;67.90
45233;DHT22;30969;51.052;17.056;2023-02-15T02:19:10;4.70;68.20
45233;DHT22;30969;51.052;17.056;2023-02-15T02:24:45;4.70;68.30
45233;DHT22;30969;51.052;17.056;2023-02-15T02:35:38;4.60;68.30
45233;DHT22;30969;51.052;17.056;2023-02-15T02:40:54;4.50;68.40
45233;DHT22;30969;51.052;17.056;2023-02-15T02:46:02;4.50;68.70
45233;DHT22;30969;51.052;17.056;2023-02-15T02:51:07;4.50;68.80
45233;DHT22;30969;51.052;17.056;2023-02-15T02:56:18;4.50;68.60
45233;DHT22;30969;51.052;17.056;2023-02-15T03:01:26;4.50;68.70
45233;DHT22;30969;51.052;17.056;2023-02-15T03:06:35;4.40;68.80
45233;DHT22;30969;51.052;17.056;2023-02-15T03:11:42;4.20;69.00
45233;DHT22;30969;51.052;17.056;2023-02-15T03:16:47;4.10;69.50
45233;DHT22;30969;51.052;17.056;2023-02-15T03:27:38;4.00;69.90
45233;DHT22;30969;51.052;17.056;2023-02-15T03:32:45;3.90;70.10
45233;DHT22;30969;51.052;17.056;2023-02-15T03:37:51;3.90;70.30
45233;DHT22;30969;51.052;17.056;2023-02-15T03:43:02;3.90;70.30
45233;DHT22;30969;51.052;17.056;2023-02-15T03:48:08;3.90;70.30
45233;DHT22;30969;51.052;17.056;2023-02-15T03:53:14;4.00;70.20
45233;DHT22;30969;51.052;17.056;2023-02-15T03:58:19;4.10;70.30
45233;DHT22;30969;51.052;17.056;2023-02-15T04:03:43;4.10;70.30
45233;DHT22;30969;51.052;17.056;2023-02-15T04:08:48;4.20;70.20
45233;DHT22;30969;51.052;17.056;2023-02-15T04:14:10;4.20;70.00
45233;DHT22;30969;51.052;17.056;2023-02-15T04:19:28;4.20;70.00
45233;DHT22;30969;51.052;17.056;2023-02-15T04:24:49;4.30;70.00
45233;DHT22;30969;51.052;17.056;2023-02-15T04:30:13;4.30;69.80
45233;DHT22;30969;51.052;17.056;2023-02-15T04:35:17;4.30;69.70
45233;DHT22;30969;51.052;17.056;2023-02-15T04:40:21;4.30;69.60
45233;DHT22;30969;51.052;17.056;2023-02-15T04:45:25;4.30;69.40
45233;DHT22;30969;51.052;17.056;2023-02-15T04:50:29;4.30;69.40
45233;DHT22;30969;51.052;17.056;2023-02-15T04:55:32;4.30;69.30
45233;DHT22;30969;51.052;17.056;2023-02-15T05:00:37;4.30;69.40
45233;DHT22;30969;51.052;17.056;2023-02-15T05:05:41;4.20;69.30
45233;DHT22;30969;51.052;17.056;2023-02-15T05:10:44;4.20;69.20
45233;DHT22;30969;51.052;17.056;2023-02-15T05:15:49;4.20;69.20
45233;DHT22;30969;51.052;17.056;2023-02-15T05:20:53;4.20;69.20
45233;DHT22;30969;51.052;17.056;2023-02-15T05:25:57;4.20;69.20
45233;DHT22;30969;51.052;17.056;2023-02-15T05:31:19;4.20;69.30
45233;DHT22;30969;51.052;17.056;2023-02-15T05:36:23;4.20;69.30
45233;DHT22;30969;51.052;17.056;2023-02-15T05:41:27;4.10;69.10
45233;DHT22;30969;51.052;17.056;2023-02-15T05:46:32;4.10;70.20
45233;DHT22;30969;51.052;17.056;2023-02-15T05:51:35;4.10;69.20
45233;DHT22;30969;51.052;17.056;2023-02-15T05:56:39;4.10;69.20
45233;DHT22;30969;51.052;17.056;2023-02-15T06:01:44;4.10;69.20
45233;DHT22;30969;51.052;17.056;2023-02-15T06:07:09;4.10;69.20
45233;DHT22;30969;51.052;17.056;2023-02-15T06:12:14;4.00;69.10
45233;DHT22;30969;51.052;17.056;2023-02-15T06:17:19;4.00;69.20
45233;DHT22;30969;51.052;17.056;2023-02-15T06:22:24;4.00;69.40
45233;DHT22;30969;51.052;17.056;2023-02-15T06:27:27;4.00;69.40
45233;DHT22;30969;51.052;17.056;2023-02-15T06:32:32;4.00;69.70
45233;DHT22;30969;51.052;17.056;2023-02-15T06:37:35;4.00;69.80
45233;DHT22;30969;51.052;17.056;2023-02-15T06:42:39;4.00;69.80
45233;DHT22;30969;51.052;17.056;2023-02-15T06:47:43;4.00;69.80
45233;DHT22;30969;51.052;17.056;2023-02-15T06:52:47;4.00;69.70
45233;DHT22;30969;51.052;17.056;2023-02-15T06:57:51;4.00;69.90
45233;DHT22;30969;51.052;17.056;2023-02-15T07:02:56;4.10;69.90
45233;DHT22;30969;51.052;17.056;2023-02-15T07:08:00;4.10;69.90
45233;DHT22;30969;51.052;17.056;2023-02-15T07:13:04;4.10;70.00
45233;DHT22;30969;51.052;17.056;2023-02-15T07:18:09;4.20;70.20
45233;DHT22;30969;51.052;17.056;2023-02-15T07:23:13;4.20;70.20
45233;DHT22;30969;51.052;17.056;2023-02-15T07:28:16;4.30;70.30
45233;DHT22;30969;51.052;17.056;2023-02-15T07:38:52;4.40;70.60
45233;DHT22;30969;51.052;17.056;2023-02-15T07:49:24;4.50;70.70
45233;DHT22;30969;51.052;17.056;2023-02-15T07:54:29;4.60;70.70
45233;DHT22;30969;51.052;17.056;2023-02-15T07:59:33;4.70;71.10
45233;DHT22;30969;51.052;17.056;2023-02-15T08:04:36;4.80;70.90
45233;DHT22;30969;51.052;17.056;2023-02-15T08:09:41;4.80;70.70
45233;DHT22;30969;51.052;17.056;2023-02-15T08:14:44;4.90;70.80
45233;DHT22;30969;51.052;17.056;2023-02-15T08:19:48;4.90;71.90
45233;DHT22;30969;51.052;17.056;2023-02-15T08:24:52;4.90;71.00
45233;DHT22;30969;51.052;17.056;2023-02-15T08:29:56;5.00;71.10
45233;DHT22;30969;51.052;17.056;2023-02-15T08:34:59;5.10;71.10
45233;DHT22;30969;51.052;17.056;2023-02-15T08:40:05;5.10;71.30
45233;DHT22;30969;51.052;17.056;2023-02-15T08:45:09;5.20;71.30
45233;DHT22;30969;51.052;17.056;2023-02-15T08:50:13;5.20;71.10
45233;DHT22;30969;51.052;17.056;2023-02-15T08:55:17;5.30;71.20
45233;DHT22;30969;51.052;17.056;2023-02-15T09:00:22;5.30;71.10
45233;DHT22;30969;51.052;17.056;2023-02-15T09:05:25;5.40;71.00
45233;DHT22;30969;51.052;17.056;2023-02-15T09:10:30;5.50;71.00
45233;DHT22;30969;51.052;17.056;2023-02-15T09:15:33;5.50;71.00
45233;DHT22;30969;51.052;17.056;2023-02-15T09:20:37;5.60;70.80
45233;DHT22;30969;51.052;17.056;2023-02-15T09:25:42;5.70;70.60
45233;DHT22;30969;51.052;17.056;2023-02-15T09:30:45;5.80;70.50
45233;DHT22;30969;51.052;17.056;2023-02-15T09:35:49;5.90;70.40
45233;DHT22;30969;51.052;17.056;2023-02-15T09:41:06;6.00;70.40
45233;DHT22;30969;51.052;17.056;2023-02-15T09:46:29;6.10;70.30
45233;DHT22;30969;51.052;17.056;2023-02-15T09:51:50;6.10;70.10
45233;DHT22;30969;51.052;17.056;2023-02-15T09:57:00;6.20;70.20
45233;DHT22;30969;51.052;17.056;2023-02-15T10:02:20;6.30;70.30
45233;DHT22;30969;51.052;17.056;2023-02-15T10:07:37;6.40;70.30
45233;DHT22;30969;51.052;17.056;2023-02-15T10:13:00;6.50;70.50
45233;DHT22;30969;51.052;17.056;2023-02-15T10:18:14;6.60;70.30
45233;DHT22;30969;51.052;17.056;2023-02-15T10:23:34;6.70;70.30
45233;DHT22;30969;51.052;17.056;2023-02-15T10:28:46;6.80;70.20
45233;DHT22;30969;51.052;17.056;2023-02-15T10:34:06;6.90;70.20
45233;DHT22;30969;51.052;17.056;2023-02-15T10:39:16;7.00;70.10
45233;DHT22;30969;51.052;17.056;2023-02-15T10:44:37;7.10;70.10
45233;DHT22;30969;51.052;17.056;2023-02-15T10:49:55;7.30;69.90
45233;DHT22;30969;51.052;17.056;2023-02-15T10:55:10;7.40;69.50
45233;DHT22;30969;51.052;17.056;2023-02-15T11:00:21;7.50;69.10
45233;DHT22;30969;51.052;17.056;2023-02-15T11:05:35;7.60;69.20
45233;DHT22;30969;51.052;17.056;2023-02-15T11:10:45;7.70;68.80
45233;DHT22;30969;51.052;17.056;2023-02-15T11:15:54;7.80;68.90
45233;DHT22;30969;51.052;17.056;2023-02-15T11:21:02;7.90;68.90
45233;DHT22;30969;51.052;17.056;2023-02-15T11:26:14;8.00;68.70
45233;DHT22;30969;51.052;17.056;2023-02-15T11:31:23;8.10;68.60
45233;DHT22;30969;51.052;17.056;2023-02-15T11:36:28;8.30;68.30
45233;DHT22;30969;51.052;17.056;2023-02-15T11:41:38;8.40;68.00
45233;DHT22;30969;51.052;17.056;2023-02-15T11:46:45;8.50;67.90
45233;DHT22;30969;51.052;17.056;2023-02-15T11:51:49;8.70;67.70
45233;DHT22;30969;51.052;17.056;2023-02-15T11:56:55;8.80;67.60
45233;DHT22;30969;51.052;17.056;2023-02-15T12:02:01;8.90;66.90
45233;DHT22;30969;51.052;17.056;2023-02-15T12:07:13;9.10;67.80
45233;DHT22;30969;51.052;17.056;2023-02-15T12:12:22;9.20;66.40
45233;DHT22;30969;51.052;17.056;2023-02-15T12:17:29;9.40;66.10
45233;DHT22;30969;51.052;17.056;2023-02-15T12:22:36;9.50;66.20
45233;DHT22;30969;51.052;17.056;2023-02-15T12:27:42;9.60;65.50
45233;DHT22;30969;51.052;17.056;2023-02-15T12:32:51;9.70;65.40
45233;DHT22;30969;51.052;17.056;2023-02-15T12:37:58;9.80;65.60
45233;DHT22;30969;51.052;17.056;2023-02-15T12:43:04;10.00;64.90
45233;DHT22;30969;51.052;17.056;2023-02-15T12:48:17;10.20;64.70
45233;DHT22;30969;51.052;17.056;2023-02-15T12:53:23;10.30;64.30
45233;DHT22;30969;51.052;17.056;2023-02-15T12:58:33;10.40;64.50
45233;DHT22;30969;51.052;17.056;2023-02-15T13:03:55;10.60;64.60
45233;DHT22;30969;51.052;17.056;2023-02-15T13:09:06;10.80;63.90
45233;DHT22;30969;51.052;17.056;2023-02-15T13:14:17;10.90;64.20
45233;DHT22;30969;51.052;17.056;2023-02-15T13:19:31;11.10;63.60
45233;DHT22;30969;51.052;17.056;2023-02-15T13:24:39;11.20;63.40
45233;DHT22;30969;51.052;17.056;2023-02-15T13:29:46;11.40;63.20
45233;DHT22;30969;51.052;17.056;2023-02-15T13:34:56;11.50;62.10
45233;DHT22;30969;51.052;17.056;2023-02-15T13:40:02;11.70;62.30
45233;DHT22;30969;51.052;17.056;2023-02-15T13:45:26;11.80;62.10
45233;DHT22;30969;51.052;17.056;2023-02-15T13:50:56;11.90;62.00
45233;DHT22;30969;51.052;17.056;2023-02-15T13:56:09;12.10;61.30
45233;DHT22;30969;51.052;17.056;2023-02-15T14:01:20;12.10;61.10
45233;DHT22;30969;51.052;17.056;2023-02-15T14:06:45;12.30;61.20
45233;DHT22;30969;51.052;17.056;2023-02-15T14:11:58;12.40;60.80
45233;DHT22;30969;51.052;17.056;2023-02-15T14:17:11;12.40;60.30
45233;DHT22;30969;51.052;17.056;2023-02-15T14:22:25;12.50;60.20
45233;DHT22;30969;51.052;17.056;2023-02-15T14:27:36;12.50;59.60
45233;DHT22;30969;51.052;17.056;2023-02-15T14:32:47;12.50;59.80
45233;DHT22;30969;51.052;17.056;2023-02-15T14:37:59;12.40;59.30
45233;DHT22;30969;51.052;17.056;2023-02-15T14:43:11;12.30;59.10
45233;DHT22;30969;51.052;17.056;2023-02-15T14:48:21;12.20;59.20
45233;DHT22;30969;51.052;17.056;2023-02-15T14:53:38;12.00;58.70
45233;DHT22;30969;51.052;17.056;2023-02-15T14:59:17;11.90;58.70
45233;DHT22;30969;51.052;17.056;2023-02-15T15:04:29;11.70;58.90
45233;DHT22;30969;51.052;17.056;2023-02-15T15:09:37;11.50;59.00
45233;DHT22;30969;51.052;17.056;2023-02-15T15:14:43;11.40;59.10
45233;DHT22;30969;51.052;17.056;2023-02-15T15:19:58;11.40;59.10
45233;DHT22;30969;51.052;17.056;2023-02-15T15:25:08;11.30;59.10
45233;DHT22;30969;51.052;17.056;2023-02-15T15:30:47;11.20;59.30
45233;DHT22;30969;51.052;17.056;2023-02-15T15:36:07;11.00;59.40
45233;DHT22;30969;51.052;17.056;2023-02-15T15:41:30;10.90;59.60
45233;DHT22;30969;51.052;17.056;2023-02-15T15:47:03;10.80;59.70
45233;DHT22;30969;51.052;17.056;2023-02-15T15:52:14;10.70;59.90
45233;DHT22;30969;51.052;17.056;2023-02-15T15:57:25;10.60;60.00
45233;DHT22;30969;51.052;17.056;2023-02-15T16:02:30;10.50;60.00
45233;DHT22;30969;51.052;17.056;2023-02-15T16:07:34;10.40;60.10
45233;DHT22;30969;51.052;17.056;2023-02-15T16:12:39;10.30;60.10
45233;DHT22;30969;51.052;17.056;2023-02-15T16:17:45;10.20;60.30
45233;DHT22;30969;51.052;17.056;2023-02-15T16:23:05;10.10;60.40
45233;DHT22;30969;51.052;17.056;2023-02-15T16:28:12;10.00;60.50
45233;DHT22;30969;51.052;17.056;2023-02-15T16:33:20;9.90;60.60
45233;DHT22;30969;51.052;17.056;2023-02-15T16:38:59;9.80;60.70
45233;DHT22;30969;51.052;17.056;2023-02-15T16:44:15;9.70;60.90
45233;DHT22;30969;51.052;17.056;2023-02-15T16:49:21;9.60;61.10
45233;DHT22;30969;51.052;17.056;2023-02-15T16:54:27;9.60;61.40
45233;DHT22;30969;51.052;17.056;2023-02-15T16:59:37;9.50;61.40
45233;DHT22;30969;51.052;17.056;2023-02-15T17:04:44;9.40;61.50
45233;DHT22;30969;51.052;17.056;2023-02-15T17:09:52;9.30;61.60
45233;DHT22;30969;51.052;17.056;2023-02-15T17:14:57;9.20;61.80
45233;DHT22;30969;51.052;17.056;2023-02-15T17:20:00;9.20;61.90
45233;DHT22;30969;51.052;17.056;2023-02-15T17:25:05;9.10;61.90
45233;DHT22;30969;51.052;17.056;2023-02-15T17:30:16;9.00;62.10
45233;DHT22;30969;51.052;17.056;2023-02-15T17:35:22;9.00;62.30
45233;DHT22;30969;51.052;17.056;2023-02-15T17:40:28;8.90;62.40
45233;DHT22;30969;51.052;17.056;2023-02-15T17:45:36;8.80;62.70
45233;DHT22;30969;51.052;17.056;2023-02-15T17:50:41;8.80;62.80
45233;DHT22;30969;51.052;17.056;2023-02-15T17:55:44;8.70;62.80
45233;DHT22;30969;51.052;17.056;2023-02-15T18:00:51;8.60;62.90
45233;DHT22;30969;51.052;17.056;2023-02-15T18:06:12;8.60;63.10
45233;DHT22;30969;51.052;17.056;2023-02-15T18:11:34;8.50;63.00
45233;DHT22;30969;51.052;17.056;2023-02-15T18:16:42;8.50;63.10
45233;DHT22;30969;51.052;17.056;2023-02-15T18:21:47;8.40;63.10
45233;DHT22;30969;51.052;17.056;2023-02-15T18:26:52;8.30;63.30
45233;DHT22;30969;51.052;17.056;2023-02-15T18:31:58;8.30;63.30
45233;DHT22;30969;51.052;17.056;2023-02-15T18:37:04;8.20;63.40
45233;DHT22;30969;51.052;17.056;2023-02-15T18:42:19;8.10;63.40
45233;DHT22;30969;51.052;17.056;2023-02-15T18:47:25;8.00;63.40
45233;DHT22;30969;51.052;17.056;2023-02-15T18:52:32;8.00;63.30
45233;DHT22;30969;51.052;17.056;2023-02-15T18:57:36;7.90;63.40
45233;DHT22;30969;51.052;17.056;2023-02-15T19:02:41;7.80;63.30
45233;DHT22;30969;51.052;17.056;2023-02-15T19:07:45;7.70;63.40
45233;DHT22;30969;51.052;17.056;2023-02-15T19:12:50;7.70;63.30
45233;DHT22;30969;51.052;17.056;2023-02-15T19:17:55;7.60;63.40
45233;DHT22;30969;51.052;17.056;2023-02-15T19:22:59;7.50;63.40
45233;DHT22;30969;51.052;17.056;2023-02-15T19:28:10;7.40;63.40
45233;DHT22;30969;51.052;17.056;2023-02-15T19:33:18;7.30;63.40
45233;DHT22;30969;51.052;17.056;2023-02-15T19:38:25;7.20;63.60
45233;DHT22;30969;51.052;17.056;2023-02-15T19:43:29;7.20;63.70
45233;DHT22;30969;51.052;17.056;2023-02-15T19:48:33;7.10;63.70
45233;DHT22;30969;51.052;17.056;2023-02-15T19:53:37;7.10;63.80
45233;DHT22;30969;51.052;17.056;2023-02-15T19:58:41;7.00;63.80
45233;DHT22;30969;51.052;17.056;2023-02-15T20:03:46;6.90;63.80
45233;DHT22;30969;51.052;17.056;2023-02-15T20:08:52;6.90;63.90
45233;DHT22;30969;51.052;17.056;2023-02-15T20:13:56;6.90;63.90
45233;DHT22;30969;51.052;17.056;2023-02-15T20:19:01;6.80;63.80
45233;DHT22;30969;51.052;17.056;2023-02-15T20:24:05;6.80;63.90
45233;DHT22;30969;51.052;17.056;2023-02-15T20:29:12;6.70;64.10
45233;DHT22;30969;51.052;17.056;2023-02-15T20:34:17;6.70;64.10
45233;DHT22;30969;51.052;17.056;2023-02-15T20:39:21;6.60;63.90
45233;DHT22;30969;51.052;17.056;2023-02-15T20:44:26;6.60;65.10
45233;DHT22;30969;51.052;17.056;2023-02-15T20:49:32;6.50;64.20
45233;DHT22;30969;51.052;17.056;2023-02-15T20:54:38;6.50;64.20
45233;DHT22;30969;51.052;17.056;2023-02-15T20:59:41;6.40;64.30
45233;DHT22;30969;51.052;17.056;2023-02-15T21:04:46;6.30;64.50
45233;DHT22;30969;51.052;17.056;2023-02-15T21:09:49;6.30;64.40
45233;DHT22;30969;51.052;17.056;2023-02-15T21:14:55;6.30;64.50
45233;DHT22;30969;51.052;17.056;2023-02-15T21:20:00;6.20;64.60
45233;DHT22;30969;51.052;17.056;2023-02-15T21:25:04;6.20;64.70
45233;DHT22;30969;51.052;17.056;2023-02-15T21:30:13;6.20;64.80
45233;DHT22;30969;51.052;17.056;2023-02-15T21:35:19;6.10;64.90
45233;DHT22;30969;51.052;17.056;2023-02-15T21:40:26;6.00;65.10
45233;DHT22;30969;51.052;17.056;2023-02-15T21:45:30;6.00;65.10
45233;DHT22;30969;51.052;17.056;2023-02-15T21:50:53;5.90;65.00
45233;DHT22;30969;51.052;17.056;2023-02-15T21:56:16;5.90;65.00
45233;DHT22;30969;51.052;17.056;2023-02-15T22:01:21;5.90;65.00
45233;DHT22;30969;51.052;17.056;2023-02-15T22:06:27;5.80;66.00
45233;DHT22;30969;51.052;17.056;2023-02-15T22:11:31;5.70;65.20
45233;DHT22;30969;51.052;17.056;2023-02-15T22:16:35;5.70;65.40
45233;DHT22;30969;51.052;17.056;2023-02-15T22:21:40;5.70;65.60
45233;DHT22;30969;51.052;17.056;2023-02-15T22:26:43;5.70;65.60
45233;DHT22;30969;51.052;17.056;2023-02-15T22:31:47;5.70;65.50
45233;DHT22;30969;51.052;17.056;2023-02-15T22:36:52;5.60;65.30
45233;DHT22;30969;51.052;17.056;2023-02-15T22:41:56;5.60;65.40
45233;DHT22;30969;51.052;17.056;2023-02-15T22:47:00;5.60;65.40
45233;DHT22;30969;51.052;17.056;2023-02-15T22:52:12;5.60;65.40
45233;DHT22;30969;51.052;17.056;2023-02-15T22:57:26;5.50;65.60
45233;DHT22;30969;51.052;17.056;2023-02-15T23:02:31;5.50;65.50
45233;DHT22;30969;51.052;17.056;2023-02-15T23:07:36;5.50;65.60
45233;DHT22;30969;51.052;17.056;2023-02-15T23:12:41;5.40;65.70
45233;DHT22;30969;51.052;17.056;2023-02-15T23:18:09;5.40;65.70
45233;DHT22;30969;51.052;17.056;2023-02-15T23:23:23;5.40;65.70
45233;DHT22;30969;51.052;17.056;2023-02-15T23:28:29;5.30;65.80
45233;DHT22;30969;51.052;17.056;2023-02-15T23:33:34;5.30;65.60
45233;DHT22;30969;51.052;17.056;2023-02-15T23:38:39;5.20;65.80
45233;DHT22;30969;51.052;17.056;2023-02-15T23:43:45;5.10;66.00
45233;DHT22;30969;51.052;17.056;2023-02-15T23:48:49;5.10;66.00
45233;DHT22;30969;51.052;17.056;2023-02-15T23:53:55;5.10;65.90
45233;DHT22;30969;51.052;17.056;2023-02-15T23:58:59;5.10;65.90
